sensor_id;sensor_type;location;lat;lon;timestamp;P1;durP1;ratioP1;P2;durP2;ratioP2
8397;SDS011;4236;54.504;9.588;2023-05-17T00:01:27;13.83;;;9.90;;
8397;SDS011;4236;54.504;9.588;2023-05-17T00:03:54;9.37;;;8.67;;
8397;SDS011;4236;54.504;9.588;2023-05-17T00:06:23;19.33;;;9.30;;
8397;SDS011;4236;54.504;9.588;2023-05-17T00:08:51;10.80;;;8.40;;
8397;SDS011;4236;54.504;9.588;2023-05-17T00:11:19;11.60;;;9.10;;
8397;SDS011;4236;54.504;9.588;2023-05-17T00:13:47;9.70;;;8.03;;
8397;SDS011;4236;54.504;9.588;2023-05-17T00:16:14;11.23;;;8.83;;
8397;SDS011;4236;54.504;9.588;2023-05-17T00:18:42;11.40;;;8.20;;
8397;SDS011;4236;54.504;9.588;2023-05-17T00:21:10;20.83;;;8.43;;
8397;SDS011;4236;54.504;9.588;2023-05-17T00:23:39;16.00;;;10.13;;
8397;SDS011;4236;54.504;9.588;2023-05-17T00:26:07;13.00;;;8.90;;
8397;SDS011;4236;54.504;9.588;2023-05-17T00:28:35;10.20;;;8.13;;
8397;SDS011;4236;54.504;9.588;2023-05-17T00:31:03;13.30;;;7.90;;
8397;SDS011;4236;54.504;9.588;2023-05-17T00:33:30;17.20;;;9.07;;
8397;SDS011;4236;54.504;9.588;2023-05-17T00:35:58;16.13;;;8.70;;
8397;SDS011;4236;54.504;9.588;2023-05-17T00:38:26;14.43;;;8.20;;
8397;SDS011;4236;54.504;9.588;2023-05-17T00:40:55;14.10;;;9.77;;
8397;SDS011;4236;54.504;9.588;2023-05-17T00:43:22;11.23;;;8.27;;
8397;SDS011;4236;54.504;9.588;2023-05-17T00:45:51;14.93;;;8.17;;
8397;SDS011;4236;54.504;9.588;2023-05-17T00:48:18;12.60;;;8.10;;
8397;SDS011;4236;54.504;9.588;2023-05-17T00:50:47;13.53;;;8.20;;
8397;SDS011;4236;54.504;9.588;2023-05-17T00:53:15;11.63;;;8.70;;
8397;SDS011;4236;54.504;9.588;2023-05-17T00:55:44;19.53;;;7.80;;
8397;SDS011;4236;54.504;9.588;2023-05-17T00:58:13;13.73;;;8.00;;
8397;SDS011;4236;54.504;9.588;2023-05-17T01:00:41;9.00;;;7.00;;
8397;SDS011;4236;54.504;9.588;2023-05-17T01:03:09;17.70;;;8.20;;
8397;SDS011;4236;54.504;9.588;2023-05-17T01:05:37;15.50;;;8.50;;
8397;SDS011;4236;54.504;9.588;2023-05-17T01:08:05;8.73;;;7.90;;
8397;SDS011;4236;54.504;9.588;2023-05-17T01:10:34;11.27;;;8.17;;
8397;SDS011;4236;54.504;9.588;2023-05-17T01:13:08;11.77;;;8.37;;
8397;SDS011;4236;54.504;9.588;2023-05-17T01:15:44;12.87;;;9.20;;
8397;SDS011;4236;54.504;9.588;2023-05-17T01:18:16;9.67;;;8.30;;
8397;SDS011;4236;54.504;9.588;2023-05-17T01:20:50;12.57;;;8.40;;
8397;SDS011;4236;54.504;9.588;2023-05-17T01:23:30;18.40;;;9.23;;
8397;SDS011;4236;54.504;9.588;2023-05-17T01:26:09;18.00;;;9.97;;
8397;SDS011;4236;54.504;9.588;2023-05-17T01:28:44;20.90;;;9.80;;
8397;SDS011;4236;54.504;9.588;2023-05-17T01:31:13;14.57;;;9.03;;
8397;SDS011;4236;54.504;9.588;2023-05-17T01:33:41;18.17;;;10.27;;
8397;SDS011;4236;54.504;9.588;2023-05-17T01:36:10;12.50;;;9.23;;
8397;SDS011;4236;54.504;9.588;2023-05-17T01:38:37;23.67;;;9.10;;
8397;SDS011;4236;54.504;9.588;2023-05-17T01:41:07;20.03;;;9.27;;
8397;SDS011;4236;54.504;9.588;2023-05-17T01:43:40;15.73;;;8.93;;
8397;SDS011;4236;54.504;9.588;2023-05-17T01:46:18;14.13;;;8.63;;
8397;SDS011;4236;54.504;9.588;2023-05-17T01:48:54;16.73;;;9.80;;
8397;SDS011;4236;54.504;9.588;2023-05-17T01:51:27;26.77;;;10.17;;
8397;SDS011;4236;54.504;9.588;2023-05-17T01:54:00;11.37;;;8.47;;
8397;SDS011;4236;54.504;9.588;2023-05-17T01:56:34;18.30;;;9.50;;
8397;SDS011;4236;54.504;9.588;2023-05-17T01:59:09;15.03;;;8.40;;
8397;SDS011;4236;54.504;9.588;2023-05-17T02:01:37;9.67;;;8.20;;
8397;SDS011;4236;54.504;9.588;2023-05-17T02:04:08;14.87;;;8.10;;
8397;SDS011;4236;54.504;9.588;2023-05-17T02:06:36;16.63;;;9.50;;
8397;SDS011;4236;54.504;9.588;2023-05-17T02:09:04;15.53;;;8.87;;
8397;SDS011;4236;54.504;9.588;2023-05-17T02:11:31;14.70;;;8.07;;
8397;SDS011;4236;54.504;9.588;2023-05-17T02:13:59;12.50;;;9.03;;
8397;SDS011;4236;54.504;9.588;2023-05-17T02:16:29;16.53;;;7.67;;
8397;SDS011;4236;54.504;9.588;2023-05-17T02:18:57;12.67;;;8.40;;
8397;SDS011;4236;54.504;9.588;2023-05-17T02:21:24;12.27;;;7.67;;
8397;SDS011;4236;54.504;9.588;2023-05-17T02:23:52;13.27;;;7.90;;
8397;SDS011;4236;54.504;9.588;2023-05-17T02:26:20;12.63;;;8.37;;
8397;SDS011;4236;54.504;9.588;2023-05-17T02:28:48;16.57;;;8.20;;
8397;SDS011;4236;54.504;9.588;2023-05-17T02:31:16;12.03;;;8.20;;
8397;SDS011;4236;54.504;9.588;2023-05-17T02:33:45;10.93;;;7.70;;
8397;SDS011;4236;54.504;9.588;2023-05-17T02:36:13;9.73;;;7.63;;
8397;SDS011;4236;54.504;9.588;2023-05-17T02:38:41;7.77;;;7.10;;
8397;SDS011;4236;54.504;9.588;2023-05-17T02:41:08;14.20;;;7.03;;
8397;SDS011;4236;54.504;9.588;2023-05-17T02:43:36;15.50;;;7.97;;
8397;SDS011;4236;54.504;9.588;2023-05-17T02:46:04;13.77;;;7.47;;
8397;SDS011;4236;54.504;9.588;2023-05-17T02:48:32;7.47;;;6.50;;
8397;SDS011;4236;54.504;9.588;2023-05-17T02:51:01;12.03;;;6.90;;
8397;SDS011;4236;54.504;9.588;2023-05-17T02:53:29;10.80;;;7.83;;
8397;SDS011;4236;54.504;9.588;2023-05-17T02:55:56;12.63;;;6.97;;
8397;SDS011;4236;54.504;9.588;2023-05-17T02:58:24;13.43;;;6.63;;
8397;SDS011;4236;54.504;9.588;2023-05-17T03:00:53;9.50;;;7.47;;
8397;SDS011;4236;54.504;9.588;2023-05-17T03:03:20;9.13;;;6.73;;
8397;SDS011;4236;54.504;9.588;2023-05-17T03:05:48;11.20;;;7.67;;
8397;SDS011;4236;54.504;9.588;2023-05-17T03:08:18;16.63;;;6.97;;
8397;SDS011;4236;54.504;9.588;2023-05-17T03:10:45;10.37;;;7.43;;
8397;SDS011;4236;54.504;9.588;2023-05-17T03:13:13;12.07;;;6.63;;
8397;SDS011;4236;54.504;9.588;2023-05-17T03:15:41;12.83;;;6.67;;
8397;SDS011;4236;54.504;9.588;2023-05-17T03:18:09;22.43;;;7.70;;
8397;SDS011;4236;54.504;9.588;2023-05-17T03:20:36;13.90;;;7.00;;
8397;SDS011;4236;54.504;9.588;2023-05-17T03:23:05;10.30;;;6.53;;
8397;SDS011;4236;54.504;9.588;2023-05-17T03:25:34;9.47;;;6.10;;
8397;SDS011;4236;54.504;9.588;2023-05-17T03:28:01;10.03;;;6.67;;
8397;SDS011;4236;54.504;9.588;2023-05-17T03:30:29;16.83;;;7.53;;
8397;SDS011;4236;54.504;9.588;2023-05-17T03:32:57;8.27;;;6.53;;
8397;SDS011;4236;54.504;9.588;2023-05-17T03:35:25;10.73;;;7.40;;
8397;SDS011;4236;54.504;9.588;2023-05-17T03:37:53;21.70;;;6.50;;
8397;SDS011;4236;54.504;9.588;2023-05-17T03:40:21;14.93;;;6.27;;
8397;SDS011;4236;54.504;9.588;2023-05-17T03:42:50;13.23;;;7.00;;
8397;SDS011;4236;54.504;9.588;2023-05-17T03:45:19;6.93;;;6.07;;
8397;SDS011;4236;54.504;9.588;2023-05-17T03:47:47;7.53;;;6.77;;
8397;SDS011;4236;54.504;9.588;2023-05-17T03:50:15;9.60;;;6.30;;
8397;SDS011;4236;54.504;9.588;2023-05-17T03:52:43;6.10;;;5.50;;
8397;SDS011;4236;54.504;9.588;2023-05-17T03:55:11;8.50;;;6.03;;
8397;SDS011;4236;54.504;9.588;2023-05-17T03:57:39;7.67;;;5.90;;
8397;SDS011;4236;54.504;9.588;2023-05-17T04:00:08;8.43;;;5.70;;
8397;SDS011;4236;54.504;9.588;2023-05-17T04:02:37;11.97;;;6.60;;
8397;SDS011;4236;54.504;9.588;2023-05-17T04:05:05;10.93;;;7.03;;
8397;SDS011;4236;54.504;9.588;2023-05-17T04:07:33;12.87;;;5.70;;
8397;SDS011;4236;54.504;9.588;2023-05-17T04:10:01;14.93;;;6.57;;
8397;SDS011;4236;54.504;9.588;2023-05-17T04:12:29;9.90;;;6.23;;
8397;SDS011;4236;54.504;9.588;2023-05-17T04:14:57;10.43;;;6.20;;
8397;SDS011;4236;54.504;9.588;2023-05-17T04:17:25;13.13;;;6.80;;
8397;SDS011;4236;54.504;9.588;2023-05-17T04:19:53;9.30;;;6.50;;
8397;SDS011;4236;54.504;9.588;2023-05-17T04:22:21;11.20;;;5.60;;
8397;SDS011;4236;54.504;9.588;2023-05-17T04:24:49;17.50;;;6.53;;
8397;SDS011;4236;54.504;9.588;2023-05-17T04:27:17;9.23;;;5.87;;
8397;SDS011;4236;54.504;9.588;2023-05-17T04:29:44;15.37;;;4.87;;
8397;SDS011;4236;54.504;9.588;2023-05-17T04:32:12;11.23;;;5.67;;
8397;SDS011;4236;54.504;9.588;2023-05-17T04:34:44;13.50;;;5.80;;
8397;SDS011;4236;54.504;9.588;2023-05-17T04:37:13;12.17;;;6.43;;
8397;SDS011;4236;54.504;9.588;2023-05-17T04:39:41;11.23;;;5.80;;
8397;SDS011;4236;54.504;9.588;2023-05-17T04:42:08;13.03;;;6.47;;
8397;SDS011;4236;54.504;9.588;2023-05-17T04:44:36;12.60;;;6.07;;
8397;SDS011;4236;54.504;9.588;2023-05-17T04:47:04;14.60;;;6.50;;
8397;SDS011;4236;54.504;9.588;2023-05-17T04:49:32;27.23;;;6.60;;
8397;SDS011;4236;54.504;9.588;2023-05-17T04:52:01;15.20;;;6.27;;
8397;SDS011;4236;54.504;9.588;2023-05-17T04:54:31;12.40;;;6.80;;
8397;SDS011;4236;54.504;9.588;2023-05-17T04:56:59;12.53;;;6.90;;
8397;SDS011;4236;54.504;9.588;2023-05-17T04:59:27;11.20;;;7.70;;
8397;SDS011;4236;54.504;9.588;2023-05-17T05:01:54;19.23;;;6.70;;
8397;SDS011;4236;54.504;9.588;2023-05-17T05:04:22;8.43;;;5.80;;
8397;SDS011;4236;54.504;9.588;2023-05-17T05:06:50;9.60;;;6.77;;
8397;SDS011;4236;54.504;9.588;2023-05-17T05:09:19;15.33;;;7.00;;
8397;SDS011;4236;54.504;9.588;2023-05-17T05:11:47;17.10;;;7.67;;
8397;SDS011;4236;54.504;9.588;2023-05-17T05:14:15;13.20;;;6.27;;
8397;SDS011;4236;54.504;9.588;2023-05-17T05:16:42;12.90;;;6.10;;
8397;SDS011;4236;54.504;9.588;2023-05-17T05:19:10;21.30;;;8.13;;
8397;SDS011;4236;54.504;9.588;2023-05-17T05:21:38;12.60;;;5.83;;
8397;SDS011;4236;54.504;9.588;2023-05-17T05:24:06;6.70;;;4.90;;
8397;SDS011;4236;54.504;9.588;2023-05-17T05:26:35;17.83;;;6.40;;
8397;SDS011;4236;54.504;9.588;2023-05-17T05:29:03;6.50;;;5.90;;
8397;SDS011;4236;54.504;9.588;2023-05-17T05:31:31;14.70;;;6.67;;
8397;SDS011;4236;54.504;9.588;2023-05-17T05:33:59;18.13;;;8.33;;
8397;SDS011;4236;54.504;9.588;2023-05-17T05:36:27;8.10;;;5.70;;
8397;SDS011;4236;54.504;9.588;2023-05-17T05:38:56;11.40;;;6.17;;
8397;SDS011;4236;54.504;9.588;2023-05-17T05:41:24;20.17;;;8.60;;
8397;SDS011;4236;54.504;9.588;2023-05-17T05:43:54;31.63;;;7.40;;
8397;SDS011;4236;54.504;9.588;2023-05-17T05:46:21;13.63;;;6.97;;
8397;SDS011;4236;54.504;9.588;2023-05-17T05:48:49;16.30;;;7.20;;
8397;SDS011;4236;54.504;9.588;2023-05-17T05:51:17;7.37;;;5.33;;
8397;SDS011;4236;54.504;9.588;2023-05-17T05:53:47;10.47;;;7.17;;
8397;SDS011;4236;54.504;9.588;2023-05-17T05:56:15;10.20;;;5.77;;
8397;SDS011;4236;54.504;9.588;2023-05-17T05:58:43;11.07;;;5.57;;
8397;SDS011;4236;54.504;9.588;2023-05-17T06:01:12;9.30;;;5.90;;
8397;SDS011;4236;54.504;9.588;2023-05-17T06:03:40;12.27;;;6.10;;
8397;SDS011;4236;54.504;9.588;2023-05-17T06:06:07;8.60;;;5.30;;
8397;SDS011;4236;54.504;9.588;2023-05-17T06:08:36;14.33;;;6.10;;
8397;SDS011;4236;54.504;9.588;2023-05-17T06:11:04;15.50;;;6.37;;
8397;SDS011;4236;54.504;9.588;2023-05-17T06:13:32;10.93;;;6.00;;
8397;SDS011;4236;54.504;9.588;2023-05-17T06:16:00;21.10;;;6.17;;
8397;SDS011;4236;54.504;9.588;2023-05-17T06:18:29;12.37;;;5.87;;
8397;SDS011;4236;54.504;9.588;2023-05-17T06:20:57;13.07;;;5.90;;
8397;SDS011;4236;54.504;9.588;2023-05-17T06:23:25;8.10;;;5.70;;
8397;SDS011;4236;54.504;9.588;2023-05-17T06:25:53;6.50;;;5.30;;
8397;SDS011;4236;54.504;9.588;2023-05-17T06:28:20;7.70;;;5.70;;
8397;SDS011;4236;54.504;9.588;2023-05-17T06:30:48;8.07;;;5.37;;
8397;SDS011;4236;54.504;9.588;2023-05-17T06:33:16;14.93;;;6.30;;
8397;SDS011;4236;54.504;9.588;2023-05-17T06:35:46;14.83;;;5.57;;
8397;SDS011;4236;54.504;9.588;2023-05-17T06:38:19;8.10;;;5.90;;
8397;SDS011;4236;54.504;9.588;2023-05-17T06:40:50;27.87;;;6.40;;
8397;SDS011;4236;54.504;9.588;2023-05-17T06:43:19;11.23;;;6.20;;
8397;SDS011;4236;54.504;9.588;2023-05-17T06:45:46;11.07;;;5.50;;
8397;SDS011;4236;54.504;9.588;2023-05-17T06:48:14;10.13;;;5.60;;
8397;SDS011;4236;54.504;9.588;2023-05-17T06:50:42;7.33;;;5.33;;
8397;SDS011;4236;54.504;9.588;2023-05-17T06:53:12;10.47;;;5.33;;
8397;SDS011;4236;54.504;9.588;2023-05-17T06:55:39;10.20;;;5.30;;
8397;SDS011;4236;54.504;9.588;2023-05-17T06:58:08;17.53;;;6.17;;
8397;SDS011;4236;54.504;9.588;2023-05-17T07:00:36;15.87;;;6.27;;
8397;SDS011;4236;54.504;9.588;2023-05-17T07:03:03;7.20;;;5.67;;
8397;SDS011;4236;54.504;9.588;2023-05-17T07:05:31;7.40;;;4.83;;
8397;SDS011;4236;54.504;9.588;2023-05-17T07:07:59;12.60;;;6.00;;
8397;SDS011;4236;54.504;9.588;2023-05-17T07:10:28;10.60;;;5.73;;
8397;SDS011;4236;54.504;9.588;2023-05-17T07:12:57;9.97;;;5.10;;
8397;SDS011;4236;54.504;9.588;2023-05-17T07:15:25;9.40;;;5.17;;
8397;SDS011;4236;54.504;9.588;2023-05-17T07:17:53;14.07;;;6.60;;
8397;SDS011;4236;54.504;9.588;2023-05-17T07:20:21;10.90;;;6.17;;
8397;SDS011;4236;54.504;9.588;2023-05-17T07:22:49;10.43;;;5.70;;
8397;SDS011;4236;54.504;9.588;2023-05-17T07:25:17;8.57;;;5.53;;
8397;SDS011;4236;54.504;9.588;2023-05-17T07:27:48;9.37;;;5.77;;
8397;SDS011;4236;54.504;9.588;2023-05-17T07:30:16;10.57;;;4.90;;
8397;SDS011;4236;54.504;9.588;2023-05-17T07:32:43;10.23;;;5.57;;
8397;SDS011;4236;54.504;9.588;2023-05-17T07:35:11;8.50;;;5.47;;
8397;SDS011;4236;54.504;9.588;2023-05-17T07:37:39;10.60;;;5.87;;
8397;SDS011;4236;54.504;9.588;2023-05-17T07:40:08;14.43;;;6.20;;
8397;SDS011;4236;54.504;9.588;2023-05-17T07:42:37;15.17;;;5.53;;
8397;SDS011;4236;54.504;9.588;2023-05-17T07:45:07;11.73;;;4.80;;
8397;SDS011;4236;54.504;9.588;2023-05-17T07:47:35;7.00;;;5.00;;
8397;SDS011;4236;54.504;9.588;2023-05-17T07:50:03;9.53;;;4.90;;
8397;SDS011;4236;54.504;9.588;2023-05-17T07:52:31;13.27;;;4.67;;
8397;SDS011;4236;54.504;9.588;2023-05-17T07:54:59;5.43;;;4.80;;
8397;SDS011;4236;54.504;9.588;2023-05-17T07:57:29;7.17;;;4.60;;
8397;SDS011;4236;54.504;9.588;2023-05-17T07:59:56;9.57;;;5.20;;
8397;SDS011;4236;54.504;9.588;2023-05-17T08:02:25;8.90;;;5.40;;
8397;SDS011;4236;54.504;9.588;2023-05-17T08:04:53;8.07;;;5.03;;
8397;SDS011;4236;54.504;9.588;2023-05-17T08:07:21;11.23;;;5.23;;
8397;SDS011;4236;54.504;9.588;2023-05-17T08:09:49;8.93;;;5.10;;
8397;SDS011;4236;54.504;9.588;2023-05-17T08:12:16;10.67;;;4.80;;
8397;SDS011;4236;54.504;9.588;2023-05-17T08:14:44;8.07;;;4.90;;
8397;SDS011;4236;54.504;9.588;2023-05-17T08:17:12;5.03;;;4.53;;
8397;SDS011;4236;54.504;9.588;2023-05-17T08:19:41;10.13;;;4.60;;
8397;SDS011;4236;54.504;9.588;2023-05-17T08:22:09;5.80;;;4.93;;
8397;SDS011;4236;54.504;9.588;2023-05-17T08:24:37;7.57;;;4.73;;
8397;SDS011;4236;54.504;9.588;2023-05-17T08:27:04;12.03;;;5.00;;
8397;SDS011;4236;54.504;9.588;2023-05-17T08:29:32;7.70;;;4.47;;
8397;SDS011;4236;54.504;9.588;2023-05-17T08:32:00;5.33;;;4.13;;
8397;SDS011;4236;54.504;9.588;2023-05-17T08:34:28;7.40;;;4.60;;
8397;SDS011;4236;54.504;9.588;2023-05-17T08:36:57;12.77;;;6.00;;
8397;SDS011;4236;54.504;9.588;2023-05-17T08:39:25;11.83;;;5.47;;
8397;SDS011;4236;54.504;9.588;2023-05-17T08:41:53;7.20;;;4.10;;
8397;SDS011;4236;54.504;9.588;2023-05-17T08:44:25;12.23;;;5.03;;
8397;SDS011;4236;54.504;9.588;2023-05-17T08:46:54;8.33;;;5.10;;
8397;SDS011;4236;54.504;9.588;2023-05-17T08:49:24;12.90;;;4.93;;
8397;SDS011;4236;54.504;9.588;2023-05-17T08:51:54;6.83;;;4.83;;
8397;SDS011;4236;54.504;9.588;2023-05-17T08:54:26;6.00;;;4.80;;
8397;SDS011;4236;54.504;9.588;2023-05-17T08:56:55;6.57;;;4.57;;
8397;SDS011;4236;54.504;9.588;2023-05-17T08:59:25;11.07;;;4.70;;
8397;SDS011;4236;54.504;9.588;2023-05-17T09:01:59;6.53;;;4.93;;
8397;SDS011;4236;54.504;9.588;2023-05-17T09:04:27;8.93;;;5.07;;
8397;SDS011;4236;54.504;9.588;2023-05-17T09:06:58;7.93;;;4.20;;
8397;SDS011;4236;54.504;9.588;2023-05-17T09:09:26;12.83;;;5.60;;
8397;SDS011;4236;54.504;9.588;2023-05-17T09:11:54;6.73;;;4.20;;
8397;SDS011;4236;54.504;9.588;2023-05-17T09:14:22;4.97;;;4.23;;
8397;SDS011;4236;54.504;9.588;2023-05-17T09:16:54;5.37;;;3.97;;
8397;SDS011;4236;54.504;9.588;2023-05-17T09:19:23;6.27;;;4.67;;
8397;SDS011;4236;54.504;9.588;2023-05-17T09:21:52;7.73;;;4.43;;
8397;SDS011;4236;54.504;9.588;2023-05-17T09:24:27;6.30;;;4.50;;
8397;SDS011;4236;54.504;9.588;2023-05-17T09:26:59;6.87;;;5.20;;
8397;SDS011;4236;54.504;9.588;2023-05-17T09:29:29;15.80;;;5.20;;
8397;SDS011;4236;54.504;9.588;2023-05-17T09:32:10;5.63;;;4.83;;
8397;SDS011;4236;54.504;9.588;2023-05-17T09:34:39;6.23;;;5.63;;
8397;SDS011;4236;54.504;9.588;2023-05-17T09:37:16;5.87;;;4.33;;
8397;SDS011;4236;54.504;9.588;2023-05-17T09:39:46;6.80;;;5.17;;
8397;SDS011;4236;54.504;9.588;2023-05-17T09:42:15;7.33;;;4.73;;
8397;SDS011;4236;54.504;9.588;2023-05-17T09:44:46;7.10;;;4.80;;
8397;SDS011;4236;54.504;9.588;2023-05-17T09:47:22;4.93;;;4.00;;
8397;SDS011;4236;54.504;9.588;2023-05-17T09:49:51;6.63;;;4.20;;
8397;SDS011;4236;54.504;9.588;2023-05-17T09:52:19;7.60;;;4.20;;
8397;SDS011;4236;54.504;9.588;2023-05-17T09:54:52;7.50;;;4.10;;
8397;SDS011;4236;54.504;9.588;2023-05-17T09:57:21;7.17;;;4.53;;
8397;SDS011;4236;54.504;9.588;2023-05-17T09:59:49;10.17;;;4.57;;
8397;SDS011;4236;54.504;9.588;2023-05-17T10:02:19;5.53;;;3.67;;
8397;SDS011;4236;54.504;9.588;2023-05-17T10:04:49;5.27;;;3.87;;
8397;SDS011;4236;54.504;9.588;2023-05-17T10:07:19;3.97;;;3.67;;
8397;SDS011;4236;54.504;9.588;2023-05-17T10:09:47;4.70;;;4.30;;
8397;SDS011;4236;54.504;9.588;2023-05-17T10:12:18;4.80;;;4.10;;
8397;SDS011;4236;54.504;9.588;2023-05-17T10:14:50;4.90;;;4.60;;
8397;SDS011;4236;54.504;9.588;2023-05-17T10:17:21;4.80;;;4.47;;
8397;SDS011;4236;54.504;9.588;2023-05-17T10:19:50;4.40;;;4.10;;
8397;SDS011;4236;54.504;9.588;2023-05-17T10:22:20;9.77;;;4.20;;
8397;SDS011;4236;54.504;9.588;2023-05-17T10:24:49;5.47;;;5.07;;
8397;SDS011;4236;54.504;9.588;2023-05-17T10:27:19;5.70;;;5.30;;
8397;SDS011;4236;54.504;9.588;2023-05-17T10:29:47;5.63;;;5.13;;
8397;SDS011;4236;54.504;9.588;2023-05-17T10:32:16;6.00;;;5.13;;
8397;SDS011;4236;54.504;9.588;2023-05-17T10:34:48;4.97;;;4.57;;
8397;SDS011;4236;54.504;9.588;2023-05-17T10:37:36;7.40;;;4.50;;
8397;SDS011;4236;54.504;9.588;2023-05-17T10:40:05;10.30;;;4.80;;
8397;SDS011;4236;54.504;9.588;2023-05-17T10:42:40;8.73;;;4.43;;
8397;SDS011;4236;54.504;9.588;2023-05-17T10:45:11;5.30;;;4.70;;
8397;SDS011;4236;54.504;9.588;2023-05-17T10:47:40;4.80;;;4.30;;
8397;SDS011;4236;54.504;9.588;2023-05-17T10:50:09;7.00;;;4.70;;
8397;SDS011;4236;54.504;9.588;2023-05-17T10:52:45;5.97;;;4.37;;
8397;SDS011;4236;54.504;9.588;2023-05-17T10:55:17;7.37;;;4.43;;
8397;SDS011;4236;54.504;9.588;2023-05-17T10:57:49;10.17;;;4.27;;
8397;SDS011;4236;54.504;9.588;2023-05-17T11:00:37;6.87;;;4.10;;
8397;SDS011;4236;54.504;9.588;2023-05-17T11:03:09;3.90;;;3.70;;
8397;SDS011;4236;54.504;9.588;2023-05-17T11:05:40;7.50;;;5.03;;
8397;SDS011;4236;54.504;9.588;2023-05-17T11:08:16;9.63;;;4.83;;
8397;SDS011;4236;54.504;9.588;2023-05-17T11:13:43;6.93;;;4.90;;
8397;SDS011;4236;54.504;9.588;2023-05-17T11:16:15;6.33;;;5.07;;
8397;SDS011;4236;54.504;9.588;2023-05-17T11:18:50;11.00;;;5.00;;
8397;SDS011;4236;54.504;9.588;2023-05-17T11:21:20;4.93;;;4.33;;
8397;SDS011;4236;54.504;9.588;2023-05-17T11:23:53;7.63;;;4.90;;
8397;SDS011;4236;54.504;9.588;2023-05-17T11:26:33;5.70;;;4.80;;
8397;SDS011;4236;54.504;9.588;2023-05-17T11:29:06;7.80;;;5.07;;
8397;SDS011;4236;54.504;9.588;2023-05-17T11:31:36;8.70;;;4.17;;
8397;SDS011;4236;54.504;9.588;2023-05-17T11:34:09;9.43;;;4.30;;
8397;SDS011;4236;54.504;9.588;2023-05-17T11:36:47;5.20;;;4.70;;
8397;SDS011;4236;54.504;9.588;2023-05-17T11:39:18;6.23;;;4.43;;
8397;SDS011;4236;54.504;9.588;2023-05-17T11:41:47;7.90;;;4.47;;
8397;SDS011;4236;54.504;9.588;2023-05-17T11:44:21;4.73;;;4.40;;
8397;SDS011;4236;54.504;9.588;2023-05-17T11:46:52;8.77;;;4.73;;
8397;SDS011;4236;54.504;9.588;2023-05-17T11:49:28;7.23;;;4.43;;
8397;SDS011;4236;54.504;9.588;2023-05-17T11:52:02;5.03;;;4.50;;
8397;SDS011;4236;54.504;9.588;2023-05-17T11:54:30;5.03;;;4.53;;
8397;SDS011;4236;54.504;9.588;2023-05-17T11:56:58;4.30;;;3.90;;
8397;SDS011;4236;54.504;9.588;2023-05-17T11:59:33;5.60;;;4.73;;
8397;SDS011;4236;54.504;9.588;2023-05-17T12:02:04;8.73;;;4.77;;
8397;SDS011;4236;54.504;9.588;2023-05-17T12:04:33;4.20;;;3.80;;
8397;SDS011;4236;54.504;9.588;2023-05-17T12:07:03;4.90;;;3.50;;
8397;SDS011;4236;54.504;9.588;2023-05-17T12:09:31;5.50;;;4.53;;
8397;SDS011;4236;54.504;9.588;2023-05-17T12:12:01;4.53;;;4.13;;
8397;SDS011;4236;54.504;9.588;2023-05-17T12:14:31;5.47;;;4.30;;
8397;SDS011;4236;54.504;9.588;2023-05-17T12:16:59;4.80;;;4.40;;
8397;SDS011;4236;54.504;9.588;2023-05-17T12:19:30;11.60;;;4.70;;
8397;SDS011;4236;54.504;9.588;2023-05-17T12:22:05;4.97;;;4.50;;
8397;SDS011;4236;54.504;9.588;2023-05-17T12:24:37;6.47;;;4.60;;
8397;SDS011;4236;54.504;9.588;2023-05-17T12:27:05;13.63;;;5.50;;
8397;SDS011;4236;54.504;9.588;2023-05-17T12:29:34;9.10;;;4.13;;
8397;SDS011;4236;54.504;9.588;2023-05-17T12:32:02;6.37;;;4.53;;
8397;SDS011;4236;54.504;9.588;2023-05-17T12:34:32;6.57;;;4.30;;
8397;SDS011;4236;54.504;9.588;2023-05-17T12:37:00;5.10;;;3.83;;
8397;SDS011;4236;54.504;9.588;2023-05-17T12:39:29;8.60;;;4.20;;
8397;SDS011;4236;54.504;9.588;2023-05-17T12:41:57;6.33;;;4.03;;
8397;SDS011;4236;54.504;9.588;2023-05-17T12:44:28;4.17;;;3.47;;
8397;SDS011;4236;54.504;9.588;2023-05-17T12:46:57;6.63;;;3.80;;
8397;SDS011;4236;54.504;9.588;2023-05-17T12:49:28;9.37;;;4.40;;
8397;SDS011;4236;54.504;9.588;2023-05-17T12:52:01;6.83;;;3.90;;
8397;SDS011;4236;54.504;9.588;2023-05-17T12:54:30;6.23;;;4.17;;
8397;SDS011;4236;54.504;9.588;2023-05-17T12:57:08;6.50;;;4.00;;
8397;SDS011;4236;54.504;9.588;2023-05-17T12:59:46;7.80;;;4.30;;
8397;SDS011;4236;54.504;9.588;2023-05-17T13:02:17;9.70;;;4.47;;
8397;SDS011;4236;54.504;9.588;2023-05-17T13:04:48;5.10;;;4.23;;
8397;SDS011;4236;54.504;9.588;2023-05-17T13:07:20;5.00;;;3.93;;
8397;SDS011;4236;54.504;9.588;2023-05-17T13:09:52;5.83;;;4.20;;
8397;SDS011;4236;54.504;9.588;2023-05-17T13:12:21;4.63;;;4.23;;
8397;SDS011;4236;54.504;9.588;2023-05-17T13:14:53;5.93;;;4.57;;
8397;SDS011;4236;54.504;9.588;2023-05-17T13:17:26;7.57;;;4.60;;
8397;SDS011;4236;54.504;9.588;2023-05-17T13:20:02;6.13;;;4.73;;
8397;SDS011;4236;54.504;9.588;2023-05-17T13:22:39;8.67;;;4.60;;
8397;SDS011;4236;54.504;9.588;2023-05-17T13:25:08;7.30;;;4.63;;
8397;SDS011;4236;54.504;9.588;2023-05-17T13:27:40;6.77;;;4.87;;
8397;SDS011;4236;54.504;9.588;2023-05-17T13:30:12;7.37;;;4.93;;
8397;SDS011;4236;54.504;9.588;2023-05-17T13:32:44;4.97;;;4.57;;
8397;SDS011;4236;54.504;9.588;2023-05-17T13:35:13;6.37;;;4.30;;
8397;SDS011;4236;54.504;9.588;2023-05-17T13:37:44;6.70;;;4.70;;
8397;SDS011;4236;54.504;9.588;2023-05-17T13:40:13;6.40;;;4.17;;
8397;SDS011;4236;54.504;9.588;2023-05-17T13:42:44;5.77;;;4.67;;
8397;SDS011;4236;54.504;9.588;2023-05-17T13:45:14;8.67;;;4.20;;
8397;SDS011;4236;54.504;9.588;2023-05-17T13:47:42;5.60;;;4.77;;
8397;SDS011;4236;54.504;9.588;2023-05-17T13:50:15;6.70;;;4.10;;
8397;SDS011;4236;54.504;9.588;2023-05-17T13:52:44;6.67;;;4.57;;
8397;SDS011;4236;54.504;9.588;2023-05-17T13:55:13;5.80;;;4.87;;
8397;SDS011;4236;54.504;9.588;2023-05-17T13:57:41;9.30;;;5.10;;
8397;SDS011;4236;54.504;9.588;2023-05-17T14:00:12;11.20;;;4.70;;
8397;SDS011;4236;54.504;9.588;2023-05-17T14:02:41;7.57;;;4.60;;
8397;SDS011;4236;54.504;9.588;2023-05-17T14:05:12;8.63;;;4.10;;
8397;SDS011;4236;54.504;9.588;2023-05-17T14:07:45;6.43;;;4.43;;
8397;SDS011;4236;54.504;9.588;2023-05-17T14:10:13;6.20;;;3.60;;
8397;SDS011;4236;54.504;9.588;2023-05-17T14:12:44;8.70;;;4.00;;
8397;SDS011;4236;54.504;9.588;2023-05-17T14:15:12;4.37;;;3.97;;
8397;SDS011;4236;54.504;9.588;2023-05-17T14:17:41;6.40;;;3.50;;
8397;SDS011;4236;54.504;9.588;2023-05-17T14:20:10;7.60;;;4.17;;
8397;SDS011;4236;54.504;9.588;2023-05-17T14:22:41;8.10;;;4.43;;
8397;SDS011;4236;54.504;9.588;2023-05-17T14:25:10;5.03;;;3.70;;
8397;SDS011;4236;54.504;9.588;2023-05-17T14:27:39;6.73;;;4.63;;
8397;SDS011;4236;54.504;9.588;2023-05-17T14:30:09;9.17;;;5.30;;
8397;SDS011;4236;54.504;9.588;2023-05-17T14:32:39;12.87;;;5.60;;
8397;SDS011;4236;54.504;9.588;2023-05-17T14:35:08;6.33;;;4.53;;
8397;SDS011;4236;54.504;9.588;2023-05-17T14:37:38;10.30;;;5.30;;
8397;SDS011;4236;54.504;9.588;2023-05-17T14:40:09;9.90;;;5.03;;
8397;SDS011;4236;54.504;9.588;2023-05-17T14:42:38;10.20;;;4.23;;
8397;SDS011;4236;54.504;9.588;2023-05-17T14:45:09;9.83;;;4.93;;
8397;SDS011;4236;54.504;9.588;2023-05-17T14:47:40;9.40;;;4.90;;
8397;SDS011;4236;54.504;9.588;2023-05-17T14:50:09;5.43;;;4.53;;
8397;SDS011;4236;54.504;9.588;2023-05-17T14:52:39;7.17;;;4.97;;
8397;SDS011;4236;54.504;9.588;2023-05-17T14:55:07;7.73;;;4.67;;
8397;SDS011;4236;54.504;9.588;2023-05-17T14:57:36;5.03;;;4.27;;
8397;SDS011;4236;54.504;9.588;2023-05-17T15:00:05;7.53;;;4.37;;
8397;SDS011;4236;54.504;9.588;2023-05-17T15:02:37;8.87;;;4.60;;
8397;SDS011;4236;54.504;9.588;2023-05-17T15:05:06;7.73;;;4.20;;
8397;SDS011;4236;54.504;9.588;2023-05-17T15:07:34;10.60;;;4.73;;
8397;SDS011;4236;54.504;9.588;2023-05-17T15:10:05;10.77;;;4.67;;
8397;SDS011;4236;54.504;9.588;2023-05-17T15:12:35;8.93;;;4.30;;
8397;SDS011;4236;54.504;9.588;2023-05-17T15:15:06;6.50;;;3.90;;
8397;SDS011;4236;54.504;9.588;2023-05-17T15:17:37;8.80;;;4.23;;
8397;SDS011;4236;54.504;9.588;2023-05-17T15:20:05;4.57;;;4.17;;
8397;SDS011;4236;54.504;9.588;2023-05-17T15:22:34;5.60;;;4.00;;
8397;SDS011;4236;54.504;9.588;2023-05-17T15:25:03;4.30;;;3.70;;
8397;SDS011;4236;54.504;9.588;2023-05-17T15:27:33;14.17;;;4.50;;